createdAt,value
2022-08-03T11:14:41.689Z,1006.49
2022-08-03T11:15:41.674Z,1006.47
2022-08-03T11:16:41.669Z,1006.49
2022-08-03T11:17:46.735Z,1006.46
2022-08-03T11:18:41.645Z,1006.48
2022-08-03T11:19:56.781Z,1006.50
2022-08-03T11:20:41.609Z,1006.51
2022-08-03T11:21:41.607Z,1006.50
2022-08-03T11:22:41.618Z,1006.51
2022-08-03T11:24:05.523Z,1006.46
2022-08-03T11:24:41.583Z,1006.45
2022-08-03T11:25:54.663Z,1006.46
2022-08-03T11:26:41.565Z,1006.49
2022-08-03T11:27:41.556Z,1006.42
2022-08-03T11:28:41.536Z,1006.46
2022-08-03T11:29:41.534Z,1006.49
2022-08-03T11:30:41.531Z,1006.48
2022-08-03T11:31:50.618Z,1006.47
2022-08-03T11:32:46.606Z,1006.45
2022-08-03T11:33:41.488Z,1006.48
2022-08-03T11:34:41.494Z,1006.50
2022-08-03T11:35:41.479Z,1006.52
2022-08-03T11:36:41.464Z,1006.53
2022-08-03T11:37:41.477Z,1006.47
2022-08-03T11:38:41.446Z,1006.49
2022-08-03T11:39:41.449Z,1006.48
2022-08-03T11:40:41.438Z,1006.44
2022-08-03T11:41:43.317Z,1006.47
2022-08-03T11:42:41.436Z,1006.52
2022-08-03T11:43:41.413Z,1006.49
2022-08-03T11:44:41.420Z,1006.48
2022-08-03T11:45:41.391Z,1006.48
2022-08-03T11:46:41.390Z,1006.46
2022-08-03T11:47:50.997Z,1006.48
2022-08-03T11:48:41.359Z,1006.46
2022-08-03T11:49:41.386Z,1006.41
2022-08-03T11:50:41.341Z,1006.44
2022-08-03T11:51:41.350Z,1006.40
2022-08-03T11:52:41.355Z,1006.40
2022-08-03T11:53:42.063Z,1006.41
2022-08-03T11:54:41.311Z,1006.38
2022-08-03T11:55:41.300Z,1006.36
2022-08-03T11:56:41.307Z,1006.40
2022-08-03T11:59:00.956Z,1006.40
2022-08-03T11:59:15.374Z,1006.32
2022-08-03T11:59:41.310Z,1006.38
2022-08-03T12:00:41.272Z,1006.37
2022-08-03T12:01:41.810Z,1006.34
2022-08-03T12:02:41.269Z,1006.36
2022-08-03T12:03:41.315Z,1006.39
2022-08-03T12:04:41.783Z,1006.36
2022-08-03T12:05:41.216Z,1006.37
2022-08-03T12:06:47.012Z,1006.38
2022-08-03T12:08:04.795Z,1006.40
2022-08-03T12:08:41.206Z,1006.38
2022-08-03T12:09:41.185Z,1006.40
2022-08-03T12:10:41.216Z,1006.39
2022-08-03T12:11:41.182Z,1006.38
2022-08-03T12:12:45.906Z,1006.35
2022-08-03T12:14:35.760Z,1006.31
2022-08-03T12:14:49.818Z,1006.30
2022-08-03T12:15:41.176Z,1006.32
2022-08-03T12:16:41.144Z,1006.29
2022-08-03T12:17:41.133Z,1006.26
2022-08-03T12:18:41.126Z,1006.31
2022-08-03T12:19:41.109Z,1006.27
2022-08-03T12:20:41.119Z,1006.28
2022-08-03T12:21:41.103Z,1006.27
2022-08-03T12:22:41.098Z,1006.23
2022-08-03T12:23:41.077Z,1006.24
2022-08-03T12:24:41.086Z,1006.23
2022-08-03T12:25:41.063Z,1006.18
2022-08-03T12:26:41.054Z,1006.19
2022-08-03T12:27:41.068Z,1006.18
2022-08-03T12:28:45.009Z,1006.18
2022-08-03T12:29:41.039Z,1006.19
2022-08-03T12:30:41.033Z,1006.12
2022-08-03T12:31:41.026Z,1006.14
2022-08-03T12:32:41.039Z,1006.11
2022-08-03T12:33:40.998Z,1006.16
2022-08-03T12:34:46.694Z,1006.15
2022-08-03T12:35:40.984Z,1006.13
2022-08-03T12:36:40.992Z,1006.09
2022-08-03T12:37:40.991Z,1006.09
2022-08-03T12:38:41.845Z,1006.09
2022-08-03T12:40:01.699Z,1006.13
2022-08-03T12:40:40.965Z,1006.11
2022-08-03T12:41:40.952Z,1006.14
2022-08-03T12:42:40.959Z,1006.11
2022-08-03T12:43:40.931Z,1006.08
2022-08-03T12:44:40.929Z,1006.09
2022-08-03T12:45:40.915Z,1006.10
2022-08-03T12:46:46.921Z,1006.09
2022-08-03T12:47:40.912Z,1006.11
2022-08-03T12:48:40.936Z,1006.06
2022-08-03T12:49:40.939Z,1006.07
2022-08-03T12:50:40.883Z,1006.06
2022-08-03T12:51:40.875Z,1006.06
2022-08-03T12:52:40.879Z,1006.05
2022-08-03T12:53:40.845Z,1006.02
2022-08-03T12:54:40.850Z,1006.08
2022-08-03T12:55:57.670Z,1006.10
2022-08-03T12:56:40.836Z,1006.15
2022-08-03T12:57:40.842Z,1006.15
2022-08-03T12:58:40.814Z,1006.12
2022-08-03T12:59:41.432Z,1006.13
2022-08-03T13:00:40.791Z,1006.13
2022-08-03T13:01:41.632Z,1006.15
2022-08-03T13:02:40.834Z,1006.16
2022-08-03T13:03:42.691Z,1006.17
2022-08-03T13:04:40.768Z,1006.18
2022-08-03T13:05:40.748Z,1006.19
2022-08-03T13:06:40.753Z,1006.20
2022-08-03T13:07:40.758Z,1006.19
2022-08-03T13:08:40.749Z,1006.21
2022-08-03T13:09:40.719Z,1006.25
2022-08-03T13:10:40.717Z,1006.18
2022-08-03T13:11:53.578Z,1006.17
2022-08-03T13:12:40.708Z,1006.15
2022-08-03T13:13:40.685Z,1006.11
2022-08-03T13:14:40.698Z,1006.10
2022-08-03T13:15:48.114Z,1005.91
2022-08-03T13:16:40.672Z,1006.05
2022-08-03T13:17:40.674Z,1005.93
2022-08-03T13:18:40.655Z,1006.03
2022-08-03T13:19:40.651Z,1006.06
2022-08-03T13:20:40.638Z,1006.07
2022-08-03T13:21:53.383Z,1006.07
2022-08-03T13:22:40.640Z,1006.02
2022-08-03T13:23:40.619Z,1005.92
2022-08-03T13:24:40.617Z,1006.07
2022-08-03T13:25:40.606Z,1006.06
2022-08-03T13:26:40.604Z,1006.04
2022-08-03T13:28:11.076Z,1006.05
2022-08-03T13:28:40.599Z,1006.09
2022-08-03T13:29:40.579Z,1006.10
2022-08-03T13:30:40.596Z,1006.06
2022-08-03T13:31:50.981Z,1006.07
2022-08-03T13:32:40.568Z,1005.89
2022-08-03T13:33:40.571Z,1006.05
2022-08-03T13:34:40.567Z,1006.07
2022-08-03T13:35:40.546Z,1006.05
2022-08-03T13:37:07.496Z,1006.02
2022-08-03T13:37:40.547Z,1006.02
2022-08-03T13:38:40.591Z,1005.99
2022-08-03T13:39:57.882Z,1005.96
2022-08-03T13:40:41.641Z,1005.94
2022-08-03T13:41:40.518Z,1005.93
2022-08-03T13:42:40.526Z,1005.97
2022-08-03T13:43:40.520Z,1005.93
2022-08-03T13:44:41.248Z,1005.88
2022-08-03T13:45:40.519Z,1005.87
2022-08-03T13:46:40.504Z,1005.89
2022-08-03T13:47:40.489Z,1005.87
2022-08-03T13:48:40.505Z,1005.87
2022-08-03T13:49:40.483Z,1005.83
2022-08-03T13:50:43.124Z,1005.86
2022-08-03T13:51:40.472Z,1005.84
2022-08-03T13:52:40.479Z,1005.84
2022-08-03T13:53:40.489Z,1005.84
2022-08-03T13:54:40.468Z,1005.79
2022-08-03T13:55:40.470Z,1005.82
2022-08-03T13:56:40.455Z,1005.79
2022-08-03T13:58:02.243Z,1005.79
2022-08-03T13:58:40.469Z,1005.81
2022-08-03T13:59:40.459Z,1005.78
2022-08-03T14:00:40.448Z,1005.77
2022-08-03T14:01:54.841Z,1005.75
2022-08-03T14:02:40.502Z,1005.75
2022-08-03T14:03:40.452Z,1005.75
2022-08-03T14:04:40.438Z,1005.70
2022-08-03T14:05:40.447Z,1005.72
2022-08-03T14:06:40.530Z,1005.66
2022-08-03T14:07:40.432Z,1005.67
2022-08-03T14:08:40.452Z,1005.67
2022-08-03T14:09:40.438Z,1005.63
2022-08-03T14:10:40.427Z,1005.65
2022-08-03T14:12:07.045Z,1005.65
2022-08-03T14:12:40.423Z,1005.74
2022-08-03T14:13:40.449Z,1005.73
2022-08-03T14:14:40.431Z,1005.65
2022-08-03T14:15:40.430Z,1005.69
2022-08-03T14:16:40.416Z,1005.71
2022-08-03T14:17:42.103Z,1005.74
2022-08-03T14:18:40.427Z,1005.71
2022-08-03T14:19:52.605Z,1005.68
2022-08-03T14:20:50.114Z,1005.74
2022-08-03T14:21:40.421Z,1005.69
2022-08-03T14:22:40.414Z,1005.70
2022-08-03T14:23:40.428Z,1005.70
2022-08-03T14:24:40.417Z,1005.71
2022-08-03T14:25:50.099Z,1005.68
2022-08-03T14:26:40.410Z,1005.58
2022-08-03T14:27:40.414Z,1005.56
2022-08-03T14:28:40.428Z,1005.54
2022-08-03T14:29:40.400Z,1005.52
2022-08-03T14:30:40.408Z,1005.48
2022-08-03T14:32:11.895Z,1005.43
2022-08-03T14:32:40.396Z,1005.46
2022-08-03T14:33:40.409Z,1005.45
2022-08-03T14:34:40.403Z,1005.44
2022-08-03T14:35:40.397Z,1005.40
2022-08-03T14:36:40.403Z,1005.42
2022-08-03T14:37:40.394Z,1005.42
2022-08-03T14:38:40.413Z,1005.40
2022-08-03T14:40:40.390Z,1005.44
2022-08-03T14:41:40.405Z,1005.40
2022-08-03T14:42:40.403Z,1005.38
2022-08-03T14:43:40.420Z,1005.33
2022-08-03T14:44:40.394Z,1005.33
2022-08-03T14:45:40.396Z,1005.32
2022-08-03T14:46:40.394Z,1005.33
2022-08-03T14:50:31.971Z,1005.29
2022-08-03T14:50:32.077Z,1005.33
2022-08-03T14:50:36.978Z,1005.30
2022-08-03T14:50:45.441Z,1005.28
2022-08-03T14:51:40.951Z,1005.26
2022-08-03T14:52:40.412Z,1005.26
2022-08-03T14:53:40.419Z,1005.26
2022-08-03T14:54:40.407Z,1005.25
2022-08-03T14:55:49.959Z,1005.22
2022-08-03T14:56:40.409Z,1005.19
2022-08-03T14:57:40.409Z,1005.17
2022-08-03T14:58:40.433Z,1005.18
2022-08-03T14:59:56.771Z,1005.22
2022-08-03T15:00:40.424Z,1005.17
2022-08-03T15:02:02.696Z,1005.18
2022-08-03T15:02:40.451Z,1005.18
2022-08-03T15:03:40.457Z,1005.19
2022-08-03T15:04:40.421Z,1005.19
2022-08-03T15:05:40.421Z,1005.19
2022-08-03T15:06:40.424Z,1005.15
2022-08-03T15:07:40.440Z,1005.17
2022-08-03T15:08:40.439Z,1005.12
2022-08-03T15:09:40.451Z,1005.09
2022-08-03T15:10:44.209Z,1005.06
2022-08-03T15:11:40.453Z,1005.01
2022-08-03T15:12:40.437Z,1004.88
2022-08-03T15:13:40.440Z,1004.87
2022-08-03T15:14:40.463Z,1004.87
2022-08-03T15:15:40.469Z,1004.86
2022-08-03T15:16:40.445Z,1004.81
2022-08-03T15:17:40.449Z,1004.74
2022-08-03T15:18:40.452Z,1004.76
2022-08-03T15:20:01.595Z,1004.82
2022-08-03T15:20:44.915Z,1004.83
2022-08-03T15:21:46.747Z,1004.88
2022-08-03T15:22:40.466Z,1004.94
2022-08-03T15:23:40.464Z,1005.01
2022-08-03T15:24:40.482Z,1005.05
2022-08-03T15:26:32.174Z,1005.10
2022-08-03T15:26:41.724Z,1005.17
2022-08-03T15:28:02.792Z,1005.26
2022-08-03T15:28:40.487Z,1005.25
2022-08-03T15:30:10.169Z,1005.27
2022-08-03T15:30:40.497Z,1005.35
2022-08-03T15:31:40.515Z,1005.40
2022-08-03T15:32:48.484Z,1005.27
2022-08-03T15:33:40.498Z,1005.28
2022-08-03T15:34:40.512Z,1005.23
2022-08-03T15:35:40.496Z,1005.24
2022-08-03T15:36:40.497Z,1005.29
2022-08-03T15:37:40.499Z,1005.21
2022-08-03T15:38:40.511Z,1005.20
2022-08-03T15:40:00.090Z,1005.20
2022-08-03T15:40:40.512Z,1005.19
2022-08-03T15:41:40.512Z,1005.21
2022-08-03T15:42:40.513Z,1005.21
2022-08-03T15:43:40.534Z,1005.25
2022-08-03T15:44:40.572Z,1005.25
2022-08-03T15:45:40.588Z,1005.28
2022-08-03T15:46:40.540Z,1005.29
2022-08-03T15:47:40.533Z,1005.31
2022-08-03T15:48:40.542Z,1005.38
2022-08-03T15:49:40.573Z,1005.45
2022-08-03T15:50:40.547Z,1005.52
2022-08-03T15:51:40.552Z,1005.66
2022-08-03T15:52:40.555Z,1005.76
2022-08-03T15:53:40.565Z,1005.83
2022-08-03T15:54:40.574Z,1005.95
2022-08-03T15:55:40.568Z,1006.02
2022-08-03T15:56:41.503Z,1005.96
2022-08-03T15:59:03.925Z,1005.86
2022-08-03T15:59:09.918Z,1005.91
2022-08-03T15:59:41.029Z,1005.77
2022-08-03T16:00:40.577Z,1005.66
2022-08-03T16:01:40.681Z,1005.71
2022-08-03T16:02:40.585Z,1005.62
2022-08-03T16:03:40.580Z,1005.56
2022-08-03T16:04:40.596Z,1005.40
2022-08-03T16:05:40.597Z,1005.28
2022-08-03T16:06:40.601Z,1005.20
2022-08-03T16:07:40.606Z,1005.13
2022-08-03T16:08:40.607Z,1005.03
2022-08-03T16:09:43.421Z,1004.98
2022-08-03T16:10:40.605Z,1004.91
2022-08-03T16:11:40.623Z,1004.90
2022-08-03T16:12:40.619Z,1004.87
2022-08-03T16:14:13.178Z,1004.86
2022-08-03T16:14:51.497Z,1004.87
2022-08-03T16:15:40.638Z,1004.89
2022-08-03T16:16:40.638Z,1004.86
2022-08-03T16:17:40.632Z,1004.84
2022-08-03T16:18:40.651Z,1004.84
2022-08-03T16:19:40.666Z,1004.86
2022-08-03T16:20:41.710Z,1004.83
2022-08-03T16:21:48.316Z,1004.80
2022-08-03T16:22:40.651Z,1004.77
2022-08-03T16:23:41.371Z,1004.78
2022-08-03T16:24:40.702Z,1004.76
2022-08-03T16:25:40.672Z,1004.78
2022-08-03T16:26:40.674Z,1004.74
2022-08-03T16:28:07.161Z,1004.72
2022-08-03T16:28:40.682Z,1004.74
2022-08-03T16:29:40.689Z,1004.73
2022-08-03T16:30:40.688Z,1004.72
2022-08-03T16:31:40.691Z,1004.71
2022-08-03T16:32:40.690Z,1004.72
2022-08-03T16:33:40.699Z,1004.69
2022-08-03T16:34:40.708Z,1004.69
2022-08-03T16:35:40.698Z,1004.70
2022-08-03T16:36:40.708Z,1004.70
2022-08-03T16:37:41.153Z,1004.67
2022-08-03T16:38:40.736Z,1004.72
2022-08-03T16:39:40.792Z,1004.72
2022-08-03T16:40:40.715Z,1004.71
2022-08-03T16:41:54.360Z,1004.72
2022-08-03T16:42:40.723Z,1004.71
2022-08-03T16:43:40.739Z,1004.71
2022-08-03T16:44:40.751Z,1004.69
2022-08-03T16:45:40.735Z,1004.67
2022-08-03T16:46:40.737Z,1004.68
2022-08-03T16:47:40.741Z,1004.69
2022-08-03T16:48:40.745Z,1004.65
2022-08-03T16:49:54.054Z,1004.66
2022-08-03T16:50:40.751Z,1004.64
2022-08-03T16:51:50.057Z,1004.62
2022-08-03T16:52:40.760Z,1004.63
2022-08-03T16:54:05.798Z,1004.58
2022-08-03T16:54:40.895Z,1004.64
2022-08-03T16:55:48.646Z,1004.61
2022-08-03T16:56:40.778Z,1004.57
2022-08-03T16:57:59.118Z,1004.65
2022-08-03T16:58:42.366Z,1004.62
2022-08-03T16:59:40.798Z,1004.66
2022-08-03T17:00:41.481Z,1004.64
2022-08-03T17:01:40.831Z,1004.62
2022-08-03T17:02:40.859Z,1004.60
2022-08-03T17:03:42.592Z,1004.52
2022-08-03T17:04:40.827Z,1004.61
2022-08-03T17:05:47.312Z,1004.58
2022-08-03T17:06:44.943Z,1004.51
2022-08-03T17:07:40.825Z,1004.47
2022-08-03T17:08:40.818Z,1004.42
2022-08-03T17:09:56.862Z,1004.60
2022-08-03T17:10:56.869Z,1004.44
2022-08-03T17:12:53.132Z,1004.43
2022-08-03T17:13:53.143Z,1004.55
2022-08-03T17:14:53.154Z,1004.56
2022-08-03T17:15:57.728Z,1004.55
2022-08-03T17:16:54.148Z,1004.55
2022-08-03T17:17:53.606Z,1004.50
2022-08-03T17:18:53.135Z,1004.44
2022-08-03T17:19:54.158Z,1004.40
2022-08-03T17:21:08.031Z,1004.35
2022-08-03T17:27:08.576Z,1004.29
2022-08-03T17:28:48.091Z,1004.30
2022-08-03T17:30:10.004Z,1004.36
2022-08-03T17:31:23.078Z,1004.40
2022-08-03T17:32:12.856Z,1004.36
2022-08-03T17:33:20.704Z,1004.33
